Time;durP1;ratioP1;P1;durP2;ratioP2;P2;SDS_P1;SDS_P2;PMS_P1;PMS_P2;Temp;Humidity;BMP_temperature;BMP_pressure;BME280_temperature;BME280_humidity;BME280_pressure;Samples;Min_cycle;Max_cycle;Signal;HPM_P1;HPM_P2
2022/05/16 00:02:04;;;;;;;;;;;;;;;;;;5050524;28;20060;-69
2022/05/16 00:04:31;;;;;;;17.48;6.13;;;;;;;;;;5030968;28;19925;-70
2022/05/16 00:06:57;;;;;;;18.83;6.55;;;;;;;;;;5050011;28;20049;-68
2022/05/16 00:09:23;;;;;;;16.48;5.88;;;;;;;;;;5050458;28;20053;-67
2022/05/16 00:11:49;;;;;;;16.95;6.03;;;;;;;;;;5050213;28;20045;-68
2022/05/16 00:14:15;;;;;;;14.65;6.75;;;;;;;;;;5049311;28;20044;-68
2022/05/16 00:16:41;;;;;;;20.08;7.05;;;;;;;;;;5060463;28;20056;-69
2022/05/16 00:19:07;;;;;;;16.95;6.70;;;;;;;;;;5069769;28;20133;-68
2022/05/16 00:21:33;;;;;;;16.67;6.00;;;;;;;;;;5069015;28;20480;-68
2022/05/16 00:23:59;;;;;;;17.75;6.30;;;;;;;;;;5046138;28;20041;-70
2022/05/16 00:26:25;;;;;;;18.05;6.45;;;;;;;;;;5031362;28;20052;-68
2022/05/16 00:28:51;;;;;;;15.40;5.95;;;;;;;;;;5049028;28;20056;-69
2022/05/16 00:31:18;;;;;;;13.68;5.57;;;;;;;;;;5031513;28;20049;-70
2022/05/16 00:33:44;;;;;;;15.05;6.15;;;;;;;;;;5030448;28;20154;-70
2022/05/16 00:36:10;;;;;;;16.27;5.93;;;;;;;;;;5031427;28;20053;-70
2022/05/16 00:38:36;;;;;;;16.88;6.00;;;;;;;;;;5067995;28;20128;-69
2022/05/16 00:41:03;;;;;;;14.90;5.95;;;;;;;;;;5069212;28;20053;-70
2022/05/16 00:43:48;;;;;;;15.13;6.13;;;;;;;;;;5050960;28;20036;-70
2022/05/16 00:46:15;;;;;;;19.48;5.90;;;;;;;;;;5052193;28;20405;-70
2022/05/16 00:48:41;;;;;;;16.08;5.93;;;;;;;;;;5066941;28;20397;-69
2022/05/16 00:51:10;;;;;;;21.02;6.35;;;;;;;;;;5068720;28;20476;-75
2022/05/16 00:53:36;;;;;;;16.77;5.78;;;;;;;;;;5068698;28;20060;-71
2022/05/16 00:56:02;;;;;;;20.55;6.35;;;;;;;;;;5045474;28;20075;-69
2022/05/16 00:58:28;;;;;;;15.98;5.55;;;;;;;;;;5069260;28;20055;-70
2022/05/16 01:00:54;;;;;;;13.88;5.53;;;;;;;;;;5068596;28;20044;-69
2022/05/16 01:06:07;;;;;;;15.70;5.25;;;;;;;;;;5061799;28;20123;-71
2022/05/16 01:08:35;;;;;;;14.82;5.28;;;;;;;;;;5048730;28;20460;-70
2022/05/16 01:11:03;;;;;;;14.63;5.65;;;;;;;;;;5060724;28;20049;-71
2022/05/16 01:13:30;;;;;;;13.45;4.93;;;;;;;;;;5069014;28;20133;-74
2022/05/16 01:15:57;;;;;;;14.95;5.32;;;;;;;;;;5066937;28;20049;-70
2022/05/16 01:18:24;;;;;;;12.32;4.80;;;;;;;;;;5048960;28;20059;-71
2022/05/16 01:20:53;;;;;;;15.93;5.30;;;;;;;;;;5014377;28;20055;-69
2022/05/16 01:23:21;;;;;;;15.35;5.45;;;;;;;;;;5030751;28;20056;-69
2022/05/16 01:25:49;;;;;;;11.63;4.63;;;;;;;;;;5048340;28;20473;-72
2022/05/16 01:28:17;;;;;;;11.63;5.25;;;;;;;;;;5048592;28;20045;-69
2022/05/16 01:30:46;;;;;;;16.27;4.85;;;;;;;;;;5048521;28;20056;-71
2022/05/16 01:33:13;;;;;;;11.00;4.70;;;;;;;;;;5030921;28;20122;-70
2022/05/16 01:35:39;;;;;;;11.38;4.78;;;;;;;;;;5049506;28;20100;-71
2022/05/16 01:38:26;;;;;;;12.75;4.68;;;;;;;;;;5052562;28;20044;-69
2022/05/16 01:40:53;;;;;;;13.30;4.90;;;;;;;;;;5052675;28;20045;-70
2022/05/16 01:43:23;;;;;;;14.20;4.88;;;;;;;;;;5052882;28;20186;-69
2022/05/16 01:45:49;;;;;;;11.45;4.60;;;;;;;;;;5052466;28;20040;-70
2022/05/16 01:48:16;;;;;;;11.73;4.40;;;;;;;;;;5051860;28;20041;-72
2022/05/16 01:50:43;;;;;;;12.40;4.25;;;;;;;;;;5050748;28;20045;-71
2022/05/16 01:53:09;;;;;;;12.95;4.63;;;;;;;;;;5052477;28;20044;-70
2022/05/16 01:55:35;;;;;;;15.10;5.13;;;;;;;;;;5052375;28;20159;-72
2022/05/16 01:58:02;;;;;;;12.85;4.43;;;;;;;;;;5051593;28;20041;-68
2022/05/16 02:00:30;;;;;;;13.13;4.60;;;;;;;;;;5052545;28;20403;-71
2022/05/16 02:02:56;;;;;;;14.68;4.40;;;;;;;;;;5051530;28;20049;-69
2022/05/16 02:05:23;;;;;;;13.82;4.20;;;;;;;;;;5052110;28;20450;-69
2022/05/16 02:07:50;;;;;;;12.68;4.40;;;;;;;;;;5051987;28;20147;-69
2022/05/16 02:10:16;;;;;;;11.90;4.32;;;;;;;;;;5051823;28;20096;-68
2022/05/16 02:12:43;;;;;;;12.88;3.97;;;;;;;;;;5052089;28;20129;-69
2022/05/16 02:15:10;;;;;;;10.80;4.13;;;;;;;;;;5052333;28;20049;-68
2022/05/16 02:17:37;;;;;;;13.07;4.35;;;;;;;;;;5050692;28;20060;-69
2022/05/16 02:20:03;;;;;;;9.85;3.53;;;;;;;;;;5051339;28;20053;-67
2022/05/16 02:25:15;;;;;;;14.38;4.15;;;;;;;;;;5071994;28;20504;-68
2022/05/16 02:27:43;;;;;;;14.43;3.85;;;;;;;;;;5071995;28;20056;-69
2022/05/16 02:30:10;;;;;;;12.27;4.13;;;;;;;;;;5042370;28;20120;-69
2022/05/16 02:32:36;;;;;;;11.52;4.00;;;;;;;;;;5052034;28;20052;-69
2022/05/16 02:35:02;;;;;;;11.07;3.88;;;;;;;;;;5052129;28;20047;-68
2022/05/16 02:37:28;;;;;;;;;;;;;;;;;;5072389;28;20052;-67
2022/05/16 02:39:54;;;;;;;13.68;4.13;;;;;;;;;;5047934;28;19921;-70
2022/05/16 02:42:20;;;;;;;9.35;3.55;;;;;;;;;;5051935;28;20342;-69
2022/05/16 02:44:46;;;;;;;11.70;3.60;;;;;;;;;;5033234;28;20433;-67
2022/05/16 02:47:17;;;;;;;13.32;3.85;;;;;;;;;;5032932;28;20116;-68
2022/05/16 02:49:43;;;;;;;11.13;4.18;;;;;;;;;;5051216;28;20119;-68
2022/05/16 02:52:09;;;;;;;12.68;4.03;;;;;;;;;;5051262;28;20093;-71
2022/05/16 02:54:35;;;;;;;;;;;;;;;;;;5051973;28;20085;-71
2022/05/16 02:57:01;;;;;;;9.45;3.30;;;;;;;;;;5051061;28;20012;-68
2022/05/16 02:59:32;;;;;;;9.95;3.78;;;;;;;;;;5033523;28;20045;-68
2022/05/16 03:01:58;;;;;;;9.55;3.53;;;;;;;;;;5049324;28;20390;-70
2022/05/16 03:04:24;;;;;;;;;;;;;;;;;;5071250;28;20496;-68
2022/05/16 03:06:50;;;;;;;11.02;4.30;;;;;;;;;;5071035;28;20079;-69
2022/05/16 03:09:17;;;;;;;;;;;;;;;;;;5053893;28;20113;-67
2022/05/16 03:11:44;;;;;;;11.07;3.47;;;;;;;;;;5061001;28;19968;-68
2022/05/16 03:14:11;;;;;;;10.45;3.53;;;;;;;;;;5050995;28;20064;-71
2022/05/16 03:16:38;;;;;;;11.80;3.97;;;;;;;;;;5051199;28;20247;-68
2022/05/16 03:19:04;;;;;;;9.93;3.47;;;;;;;;;;5032656;28;20045;-69
2022/05/16 03:21:30;;;;;;;;;;;;;;;;;;5050778;28;20056;-70
2022/05/16 03:23:56;;;;;;;12.25;4.05;;;;;;;;;;5050388;28;19920;-73
2022/05/16 03:26:22;;;;;;;11.68;3.83;;;;;;;;;;5050651;28;20380;-67
2022/05/16 03:28:49;;;;;;;11.80;3.92;;;;;;;;;;5050576;28;20146;-68
2022/05/16 03:31:15;;;;;;;12.20;3.70;;;;;;;;;;5050369;28;20040;-74
2022/05/16 03:33:41;;;;;;;14.07;4.47;;;;;;;;;;5049883;28;20121;-71
2022/05/16 03:36:07;;;;;;;10.95;3.83;;;;;;;;;;5049814;28;20116;-73
2022/05/16 03:41:18;;;;;;;13.40;4.22;;;;;;;;;;5049173;28;20453;-68
2022/05/16 03:43:45;;;;;;;10.77;4.00;;;;;;;;;;5030311;28;20137;-67
2022/05/16 03:46:11;;;;;;;12.55;4.10;;;;;;;;;;5048314;28;20101;-68
2022/05/16 03:48:37;;;;;;;11.00;3.85;;;;;;;;;;5048636;28;20056;-69
2022/05/16 03:51:05;;;;;;;10.82;3.90;;;;;;;;;;5030145;28;20087;-70
2022/05/16 03:53:31;;;;;;;9.52;4.00;;;;;;;;;;5047999;28;20517;-69
2022/05/16 03:55:57;;;;;;;10.02;3.65;;;;;;;;;;5047866;28;20437;-67
2022/05/16 03:58:23;;;;;;;9.75;3.90;;;;;;;;;;5048405;28;20132;-69
2022/05/16 04:00:49;;;;;;;11.35;3.95;;;;;;;;;;5048277;28;20067;-69
2022/05/16 04:03:15;;;;;;;10.80;4.03;;;;;;;;;;5048776;28;20044;-73
2022/05/16 04:05:41;;;;;;;13.15;3.95;;;;;;;;;;5048320;28;20157;-70
2022/05/16 04:08:08;;;;;;;12.63;4.10;;;;;;;;;;5047982;28;20236;-70
2022/05/16 04:10:34;;;;;;;11.30;4.10;;;;;;;;;;5048520;28;20473;-69
2022/05/16 04:13:00;;;;;;;12.02;4.50;;;;;;;;;;5048067;28;20045;-72
2022/05/16 04:15:26;;;;;;;10.60;3.95;;;;;;;;;;5048509;28;20445;-68
2022/05/16 04:17:52;;;;;;;13.57;4.38;;;;;;;;;;5048206;28;20096;-68
2022/05/16 04:20:18;;;;;;;;;;;;;;;;;;5048109;28;20041;-70
2022/05/16 04:22:44;;;;;;;10.68;4.10;;;;;;;;;;5048132;28;19994;-69
2022/05/16 04:25:12;;;;;;;11.02;4.43;;;;;;;;;;5048369;28;20453;-69
2022/05/16 04:27:38;;;;;;;13.48;4.45;;;;;;;;;;5029979;28;20069;-69
2022/05/16 04:30:05;;;;;;;10.13;3.70;;;;;;;;;;5047335;28;20044;-68
2022/05/16 04:32:31;;;;;;;10.30;3.70;;;;;;;;;;5047961;28;20069;-69
2022/05/16 04:34:57;;;;;;;;;;;;;;;;;;5047774;28;20041;-74
2022/05/16 04:37:23;;;;;;;11.73;3.67;;;;;;;;;;5047485;28;19920;-71
2022/05/16 04:39:49;;;;;;;;;;;;;;;;;;5048141;28;20053;-70
2022/05/16 04:45:00;;;;;;;10.05;4.22;;;;;;;;;;5045306;28;20186;-71
2022/05/16 04:47:27;;;;;;;15.40;4.40;;;;;;;;;;5047267;28;20063;-71
2022/05/16 04:49:53;;;;;;;11.55;3.95;;;;;;;;;;5067567;28;20503;-70
2022/05/16 04:52:19;;;;;;;11.23;3.83;;;;;;;;;;5067126;28;20062;-70
2022/05/16 04:54:48;;;;;;;24.23;4.40;;;;;;;;;;5067570;28;20037;-73
2022/05/16 04:57:14;;;;;;;10.70;3.83;;;;;;;;;;5050554;28;20056;-71
2022/05/16 04:59:40;;;;;;;13.05;3.90;;;;;;;;;;5047191;28;20383;-70
2022/05/16 05:02:06;;;;;;;13.95;4.53;;;;;;;;;;5047001;28;20158;-71
2022/05/16 05:04:32;;;;;;;9.77;3.72;;;;;;;;;;5047259;28;20057;-78
2022/05/16 05:06:58;;;;;;;11.80;3.60;;;;;;;;;;5047337;28;20075;-73
2022/05/16 05:09:24;;;;;;;12.15;3.90;;;;;;;;;;5062175;28;20076;-70
2022/05/16 05:14:35;;;;;;;12.80;3.97;;;;;;;;;;5049060;28;20139;-70
2022/05/16 05:17:02;;;;;;;10.65;3.65;;;;;;;;;;5042807;28;20103;-70
2022/05/16 05:19:28;;;;;;;12.50;3.90;;;;;;;;;;5047073;28;20045;-70
2022/05/16 05:21:55;;;;;;;13.70;4.13;;;;;;;;;;5029497;28;20137;-70
2022/05/16 05:24:21;;;;;;;13.55;4.18;;;;;;;;;;5012478;28;20412;-69
2022/05/16 05:26:47;;;;;;;12.68;4.45;;;;;;;;;;5046708;28;20041;-69
2022/05/16 05:29:15;;;;;;;14.30;4.50;;;;;;;;;;5046135;28;20084;-70
2022/05/16 05:31:41;;;;;;;13.32;4.45;;;;;;;;;;5047204;28;20068;-69
2022/05/16 05:34:08;;;;;;;16.80;6.45;;;;;;;;;;5045349;28;20060;-69
2022/05/16 05:36:35;;;;;;;13.27;4.82;;;;;;;;;;5046514;28;20053;-70
2022/05/16 05:39:01;;;;;;;;;;;;;;;;;;5047417;28;20044;-70
2022/05/16 05:41:27;;;;;;;11.05;4.00;;;;;;;;;;5046928;28;20023;-69
2022/05/16 05:43:54;;;;;;;11.45;4.38;;;;;;;;;;5046086;28;20111;-70
2022/05/16 05:46:20;;;;;;;13.73;4.95;;;;;;;;;;5046257;28;20420;-71
2022/05/16 05:48:47;;;;;;;13.65;4.78;;;;;;;;;;5047009;28;20049;-70
2022/05/16 05:51:14;;;;;;;12.05;4.15;;;;;;;;;;5046692;28;20049;-72
2022/05/16 05:53:41;;;;;;;11.15;4.10;;;;;;;;;;5046869;28;20052;-70
2022/05/16 05:56:08;;;;;;;13.98;4.53;;;;;;;;;;5053954;28;20048;-68
2022/05/16 05:58:34;;;;;;;11.52;4.15;;;;;;;;;;5058551;28;20195;-68
2022/05/16 06:01:00;;;;;;;;;;;;;;;;;;5067435;28;20045;-74
2022/05/16 06:03:26;;;;;;;12.40;4.93;;;;;;;;;;5059792;28;20327;-69
2022/05/16 06:05:53;;;;;;;11.02;4.53;;;;;;;;;;5038416;28;20050;-68
2022/05/16 06:08:19;;;;;;;;;;;;;;;;;;5086468;28;20048;-69
2022/05/16 06:10:45;;;;;;;15.43;4.65;;;;;;;;;;5065629;28;19920;-68
2022/05/16 06:13:11;;;;;;;;;;;;;;;;;;5081909;28;20459;-72
2022/05/16 06:15:37;;;;;;;13.52;4.18;;;;;;;;;;5083510;28;19920;-69
2022/05/16 06:18:03;;;;;;;12.40;4.32;;;;;;;;;;5069424;28;20051;-68
2022/05/16 06:20:30;;;;;;;13.68;4.47;;;;;;;;;;5046342;28;20503;-68
2022/05/16 06:22:56;;;;;;;13.85;4.43;;;;;;;;;;5054384;28;20075;-68
2022/05/16 06:25:32;;;;;;;13.93;4.43;;;;;;;;;;5076685;28;20060;-69
2022/05/16 06:27:59;;;;;;;10.73;4.25;;;;;;;;;;5083087;28;20502;-69
2022/05/16 06:30:25;;;;;;;12.13;4.35;;;;;;;;;;5083468;28;20138;-68
2022/05/16 06:32:51;;;;;;;;;;;;;;;;;;5086262;28;20063;-69
2022/05/16 06:35:18;;;;;;;15.40;4.53;;;;;;;;;;5062542;28;19957;-68
2022/05/16 06:37:44;;;;;;;18.08;4.68;;;;;;;;;;5086976;28;20071;-69
2022/05/16 06:40:11;;;;;;;16.33;4.90;;;;;;;;;;5089849;28;20124;-70
2022/05/16 06:42:37;;;;;;;14.90;4.70;;;;;;;;;;5083661;28;20132;-73
2022/05/16 06:45:04;;;;;;;11.20;4.20;;;;;;;;;;5058637;28;20067;-68
2022/05/16 06:47:30;;;;;;;16.65;4.30;;;;;;;;;;5067795;28;20044;-69
2022/05/16 06:49:56;;;;;;;16.77;4.40;;;;;;;;;;5074589;28;20044;-68
2022/05/16 06:52:24;;;;;;;14.77;4.47;;;;;;;;;;5070439;28;20036;-70
2022/05/16 06:54:50;;;;;;;17.90;4.57;;;;;;;;;;5069269;28;20109;-72
2022/05/16 06:57:16;;;;;;;18.92;4.53;;;;;;;;;;5079638;28;20112;-68
2022/05/16 06:59:43;;;;;;;14.32;4.85;;;;;;;;;;5077019;28;20051;-73
2022/05/16 07:02:09;;;;;;;20.00;5.07;;;;;;;;;;5052904;28;20055;-68
2022/05/16 07:04:37;;;;;;;18.02;4.93;;;;;;;;;;5089251;28;20056;-68
2022/05/16 07:07:08;;;;;;;11.48;4.05;;;;;;;;;;5067182;28;20142;-67
2022/05/16 07:09:36;;;;;;;15.73;4.35;;;;;;;;;;5065884;28;20048;-67
2022/05/16 07:12:02;;;;;;;14.48;4.72;;;;;;;;;;5089061;28;20063;-68
2022/05/16 07:14:28;;;;;;;13.27;4.72;;;;;;;;;;5070629;28;20158;-71
2022/05/16 07:16:54;;;;;;;15.05;4.35;;;;;;;;;;5058996;28;20052;-68
2022/05/16 07:19:20;;;;;;;20.13;4.50;;;;;;;;;;5047006;28;20369;-70
2022/05/16 07:21:46;;;;;;;14.77;4.43;;;;;;;;;;5048897;28;20044;-73
2022/05/16 07:24:12;;;;;;;18.60;4.53;;;;;;;;;;5066531;28;20047;-67
2022/05/16 07:29:23;;;;;;;16.60;4.38;;;;;;;;;;5070771;28;20217;-69
2022/05/16 07:31:51;;;;;;;24.88;5.38;;;;;;;;;;5076592;28;20059;-71
2022/05/16 07:34:17;;;;;;;15.50;4.20;;;;;;;;;;5073513;28;20048;-72
2022/05/16 07:36:44;;;;;;;15.77;4.88;;;;;;;;;;5057825;28;20127;-70
2022/05/16 07:39:10;;;;;;;15.05;4.47;;;;;;;;;;5074467;28;20044;-68
2022/05/16 07:41:38;;;;;;;16.83;4.00;;;;;;;;;;5063562;28;20056;-67
2022/05/16 07:44:04;;;;;;;13.80;4.10;;;;;;;;;;5057334;28;20051;-69
2022/05/16 07:46:30;;;;;;;11.90;3.80;;;;;;;;;;5066379;28;20133;-72
2022/05/16 07:48:56;;;;;;;15.13;4.07;;;;;;;;;;5065963;28;20071;-70
2022/05/16 07:51:22;;;;;;;17.65;4.30;;;;;;;;;;5049479;28;20436;-73
2022/05/16 07:53:48;;;;;;;15.45;4.63;;;;;;;;;;5034505;28;20063;-66
2022/05/16 07:56:14;;;;;;;;;;;;;;;;;;5067876;28;20130;-70
2022/05/16 07:58:40;;;;;;;12.65;4.53;;;;;;;;;;5066701;28;20336;-69
2022/05/16 08:01:06;;;;;;;13.95;4.53;;;;;;;;;;5049233;28;20080;-73
2022/05/16 08:03:33;;;;;;;14.90;4.30;;;;;;;;;;5054164;28;20404;-68
2022/05/16 08:05:59;;;;;;;12.65;4.28;;;;;;;;;;5068260;28;20114;-70
2022/05/16 08:11:11;;;;;;;21.63;4.25;;;;;;;;;;5066165;28;20044;-68
2022/05/16 08:13:38;;;;;;;24.20;5.05;;;;;;;;;;5067992;28;20074;-68
2022/05/16 08:16:04;;;;;;;13.98;4.65;;;;;;;;;;5048922;28;20048;-69
2022/05/16 08:18:30;;;;;;;15.55;4.10;;;;;;;;;;5067660;28;20161;-73
2022/05/16 08:20:56;;;;;;;;;;;;;;;;;;5066377;28;20189;-70
2022/05/16 08:23:25;;;;;;;18.48;5.40;;;;;;;;;;5049948;28;20351;-69
2022/05/16 08:25:53;;;;;;;14.18;4.88;;;;;;;;;;5067592;28;20115;-70
2022/05/16 08:28:19;;;;;;;11.98;4.18;;;;;;;;;;5068007;28;20044;-70
2022/05/16 08:30:45;;;;;;;16.88;4.30;;;;;;;;;;5048194;28;20048;-68
2022/05/16 08:33:11;;;;;;;;;;;;;;;;;;5058608;28;20534;-70
2022/05/16 08:35:37;;;;;;;13.90;3.88;;;;;;;;;;5047689;28;20019;-69
2022/05/16 08:40:59;;;;;;;15.13;4.30;;;;;;;;;;5047310;28;20337;-71
2022/05/16 08:43:31;;;;;;;13.50;3.95;;;;;;;;;;5053139;28;20080;-70
2022/05/16 08:46:02;;;;;;;18.33;4.95;;;;;;;;;;5066993;28;20045;-73
2022/05/16 08:48:36;;;;;;;12.30;4.15;;;;;;;;;;5067810;28;20044;-70
2022/05/16 08:51:09;;;;;;;13.82;4.35;;;;;;;;;;5067500;28;20052;-72
2022/05/16 08:53:44;;;;;;;15.65;4.22;;;;;;;;;;5047486;28;20051;-70
2022/05/16 08:56:12;;;;;;;15.18;4.47;;;;;;;;;;5065208;28;20048;-74
2022/05/16 08:58:38;;;;;;;15.00;3.80;;;;;;;;;;5067518;28;20044;-68
2022/05/16 09:01:06;;;;;;;16.92;3.95;;;;;;;;;;5067384;28;20056;-69
2022/05/16 09:03:48;;;;;;;14.02;4.20;;;;;;;;;;5065703;28;20072;-70
2022/05/16 09:06:18;;;;;;;18.75;4.68;;;;;;;;;;5066817;28;20060;-68
2022/05/16 09:08:51;;;;;;;16.98;4.60;;;;;;;;;;5066521;28;20055;-69
2022/05/16 09:11:20;;;;;;;18.13;4.40;;;;;;;;;;5067149;28;20080;-68
2022/05/16 09:13:55;;;;;;;18.85;4.22;;;;;;;;;;5065851;28;20101;-68
2022/05/16 09:16:50;;;;;;;17.20;4.28;;;;;;;;;;5067121;28;20059;-68
2022/05/16 09:19:16;;;;;;;22.45;4.47;;;;;;;;;;5045568;28;20066;-70
2022/05/16 09:21:55;;;;;;;17.30;4.00;;;;;;;;;;5048511;28;20139;-68
2022/05/16 09:24:28;;;;;;;17.50;4.60;;;;;;;;;;5065895;28;20407;-73
2022/05/16 09:27:02;;;;;;;15.35;4.50;;;;;;;;;;5051836;28;20422;-67
2022/05/16 09:29:31;;;;;;;16.27;4.45;;;;;;;;;;5028972;28;20102;-69
2022/05/16 09:32:10;;;;;;;14.13;4.50;;;;;;;;;;5046157;28;20081;-68
2022/05/16 09:34:36;;;;;;;15.35;4.25;;;;;;;;;;5046758;28;20048;-68
2022/05/16 09:37:02;;;;;;;;;;;;;;;;;;5058257;28;20048;-68
2022/05/16 09:39:31;;;;;;;12.48;3.88;;;;;;;;;;5066819;28;19930;-69
2022/05/16 09:42:02;;;;;;;18.77;5.57;;;;;;;;;;5066618;28;20049;-67
2022/05/16 09:44:30;;;;;;;17.23;4.50;;;;;;;;;;5048715;28;20041;-68
2022/05/16 09:47:16;;;;;;;15.15;3.72;;;;;;;;;;5064767;28;20496;-68
2022/05/16 09:49:43;;;;;;;12.23;4.07;;;;;;;;;;5066515;28;20415;-69
2022/05/16 09:52:16;;;;;;;15.13;4.20;;;;;;;;;;5066456;28;20045;-68
2022/05/16 09:54:42;;;;;;;15.32;4.10;;;;;;;;;;5066379;28;20048;-70
2022/05/16 09:57:08;;;;;;;;;;;;;;;;;;5067629;28;20117;-69
2022/05/16 09:59:40;;;;;;;16.63;4.70;;;;;;;;;;5069683;28;19942;-70
2022/05/16 10:02:18;;;;;;;14.82;4.10;;;;;;;;;;5052680;28;20383;-70
2022/05/16 10:04:46;;;;;;;15.32;4.40;;;;;;;;;;5070043;28;20143;-67
2022/05/16 10:07:12;;;;;;;16.63;4.50;;;;;;;;;;5052346;28;20048;-68
2022/05/16 10:09:44;;;;;;;14.20;4.03;;;;;;;;;;5069247;28;20037;-67
2022/05/16 10:12:11;;;;;;;16.50;4.10;;;;;;;;;;5070239;28;20151;-68
2022/05/16 10:14:39;;;;;;;10.98;4.07;;;;;;;;;;5070184;28;20044;-68
2022/05/16 10:17:07;;;;;;;15.98;4.45;;;;;;;;;;5069922;28;20045;-64
2022/05/16 10:19:35;;;;;;;17.25;4.53;;;;;;;;;;5068780;28;20136;-66
2022/05/16 10:22:25;;;;;;;14.27;4.40;;;;;;;;;;5060296;28;20140;-69
2022/05/16 10:24:55;;;;;;;13.57;4.00;;;;;;;;;;5031554;28;20473;-68
2022/05/16 10:27:28;;;;;;;14.75;4.18;;;;;;;;;;5032009;28;20088;-68
2022/05/16 10:29:55;;;;;;;19.30;4.28;;;;;;;;;;5049538;28;20072;-69
2022/05/16 10:35:11;;;;;;;20.00;4.82;;;;;;;;;;5063455;28;20040;-69
2022/05/16 10:37:39;;;;;;;13.18;4.60;;;;;;;;;;5071880;28;20059;-68
2022/05/16 10:40:24;;;;;;;15.07;4.68;;;;;;;;;;5068898;28;20102;-67
2022/05/16 10:42:55;;;;;;;16.38;4.55;;;;;;;;;;5067355;28;20075;-68
2022/05/16 10:45:24;;;;;;;16.83;4.45;;;;;;;;;;5072097;28;20119;-67
2022/05/16 10:47:53;;;;;;;14.88;4.47;;;;;;;;;;5068785;28;20076;-67
2022/05/16 10:50:19;;;;;;;19.00;4.35;;;;;;;;;;5069378;28;20098;-66
2022/05/16 10:52:45;;;;;;;;;;;;;;;;;;5070150;28;20130;-68
2022/05/16 10:55:12;;;;;;;13.20;4.10;;;;;;;;;;5074301;28;19957;-67
2022/05/16 10:57:47;;;;;;;17.00;4.40;;;;;;;;;;5084032;28;20139;-67
2022/05/16 11:00:15;;;;;;;13.57;4.13;;;;;;;;;;5066612;28;20117;-66
2022/05/16 11:02:56;;;;;;;16.90;4.13;;;;;;;;;;5069536;28;20151;-69
2022/05/16 11:05:42;;;;;;;14.07;3.97;;;;;;;;;;5047521;28;20362;-69
2022/05/16 11:08:26;;;;;;;13.63;4.30;;;;;;;;;;5049131;28;20263;-69
2022/05/16 11:11:11;;;;;;;13.63;3.97;;;;;;;;;;5048433;28;20206;-71
2022/05/16 11:13:45;;;;;;;15.13;4.20;;;;;;;;;;5049287;28;20045;-67
2022/05/16 11:16:14;;;;;;;12.68;3.72;;;;;;;;;;5047391;28;20524;-70
2022/05/16 11:18:45;;;;;;;13.40;4.10;;;;;;;;;;5048981;28;20068;-68
2022/05/16 11:21:30;;;;;;;15.27;4.30;;;;;;;;;;5047091;28;20052;-66
2022/05/16 11:23:59;;;;;;;16.77;4.25;;;;;;;;;;5048418;28;20056;-69
2022/05/16 11:26:42;;;;;;;13.52;4.10;;;;;;;;;;5049221;28;20056;-71
2022/05/16 11:29:27;;;;;;;13.52;4.07;;;;;;;;;;5048852;28;20116;-70
2022/05/16 11:32:05;;;;;;;13.77;4.13;;;;;;;;;;5048485;28;20112;-66
2022/05/16 11:34:49;;;;;;;13.18;3.78;;;;;;;;;;5048718;28;20167;-66
2022/05/16 11:37:21;;;;;;;13.93;4.30;;;;;;;;;;5048443;28;20174;-66
2022/05/16 11:39:52;;;;;;;13.35;4.57;;;;;;;;;;5049223;28;20155;-66
2022/05/16 11:42:40;;;;;;;17.50;4.00;;;;;;;;;;5048767;28;20052;-66
2022/05/16 11:45:16;;;;;;;13.85;4.05;;;;;;;;;;5022954;28;20104;-68
2022/05/16 11:47:47;;;;;;;12.73;4.03;;;;;;;;;;5018448;28;20057;-68
2022/05/16 11:50:22;;;;;;;17.85;4.00;;;;;;;;;;5018675;28;20046;-68
2022/05/16 11:52:48;;;;;;;12.60;4.22;;;;;;;;;;5019244;28;20049;-68
2022/05/16 12:00:58;;;;;;;11.75;3.50;;;;;;;;;;5019056;28;20050;-66
2022/05/16 12:03:32;;;;;;;21.35;4.00;;;;;;;;;;5014449;28;20046;-66
2022/05/16 12:06:26;;;;;;;14.85;4.20;;;;;;;;;;5063455;28;20104;-68
2022/05/16 12:09:04;;;;;;;17.67;4.35;;;;;;;;;;5030675;28;20064;-67
2022/05/16 12:11:30;;;;;;;14.68;3.90;;;;;;;;;;5058535;28;20203;-67
2022/05/16 12:13:59;;;;;;;14.65;4.38;;;;;;;;;;5066694;28;20198;-67
2022/05/16 12:16:32;;;;;;;15.20;4.50;;;;;;;;;;5083500;28;20337;-68
2022/05/16 12:19:16;;;;;;;13.90;4.38;;;;;;;;;;5047516;28;20056;-67
2022/05/16 12:21:53;;;;;;;16.02;4.30;;;;;;;;;;5070098;28;20062;-68
2022/05/16 12:24:24;;;;;;;14.60;4.80;;;;;;;;;;5084226;28;20108;-68
2022/05/16 12:26:59;;;;;;;11.68;4.60;;;;;;;;;;5075162;28;20564;-68
2022/05/16 12:29:38;;;;;;;17.90;4.88;;;;;;;;;;5088442;28;20096;-68
2022/05/16 12:32:04;;;;;;;15.40;5.22;;;;;;;;;;5081764;28;20135;-68
2022/05/16 12:34:33;;;;;;;17.73;5.03;;;;;;;;;;5051293;28;20559;-67
2022/05/16 12:37:07;;;;;;;13.10;4.75;;;;;;;;;;5067075;28;20122;-68
2022/05/16 12:39:43;;;;;;;19.75;6.13;;;;;;;;;;5084286;28;20132;-69
2022/05/16 12:42:10;;;;;;;;;;;;;;;;;;5070250;28;20048;-68
2022/05/16 12:44:47;;;;;;;16.42;5.22;;;;;;;;;;5075565;28;20006;-67
2022/05/16 12:47:15;;;;;;;16.08;5.03;;;;;;;;;;5050075;28;20456;-68
2022/05/16 12:49:49;;;;;;;14.57;4.38;;;;;;;;;;5057726;28;20516;-68
2022/05/16 12:52:19;;;;;;;19.10;5.63;;;;;;;;;;5067223;28;20113;-67
2022/05/16 12:55:11;;;;;;;19.98;5.05;;;;;;;;;;5061902;28;20468;-68
2022/05/16 12:57:43;;;;;;;17.25;5.15;;;;;;;;;;5033674;28;20150;-67
2022/05/16 13:00:17;;;;;;;24.55;5.45;;;;;;;;;;5042577;28;20044;-68
2022/05/16 13:02:43;;;;;;;18.30;5.30;;;;;;;;;;5068868;28;20043;-68
2022/05/16 13:05:36;;;;;;;17.00;5.20;;;;;;;;;;5066765;28;20149;-68
2022/05/16 13:08:14;;;;;;;22.50;7.95;;;;;;;;;;5059686;28;20091;-68
2022/05/16 13:10:43;;;;;;;23.52;6.20;;;;;;;;;;5069666;28;20044;-68
2022/05/16 13:13:26;;;;;;;17.45;5.10;;;;;;;;;;5065224;28;20124;-67
2022/05/16 13:16:09;;;;;;;17.95;5.60;;;;;;;;;;5058315;28;20064;-68
2022/05/16 13:18:44;;;;;;;17.27;5.28;;;;;;;;;;5078488;28;20147;-68
2022/05/16 13:21:13;;;;;;;16.48;5.57;;;;;;;;;;5059178;28;20115;-69
2022/05/16 13:23:39;;;;;;;24.13;7.30;;;;;;;;;;5075835;28;20616;-68
2022/05/16 13:31:42;;;;;;;17.35;5.65;;;;;;;;;;5065894;28;20041;-68
2022/05/16 13:34:08;;;;;;;19.40;5.90;;;;;;;;;;5080732;28;20046;-68
2022/05/16 13:36:34;;;;;;;18.17;6.03;;;;;;;;;;5083840;28;20044;-67
2022/05/16 13:39:02;;;;;;;19.17;6.32;;;;;;;;;;5068272;28;20498;-68
2022/05/16 13:41:29;;;;;;;15.80;5.78;;;;;;;;;;5082223;28;20097;-66
2022/05/16 13:43:58;;;;;;;21.70;5.90;;;;;;;;;;5080218;28;20044;-67
2022/05/16 13:46:25;;;;;;;16.30;5.80;;;;;;;;;;5075472;28;20055;-67
2022/05/16 13:49:00;;;;;;;20.10;6.78;;;;;;;;;;5069921;28;20048;-68
2022/05/16 13:51:26;;;;;;;12.85;5.07;;;;;;;;;;5065293;28;20123;-67
2022/05/16 13:53:52;;;;;;;22.08;5.88;;;;;;;;;;5067213;28;20070;-67
2022/05/16 13:56:38;;;;;;;18.00;6.15;;;;;;;;;;5069251;28;20051;-68
2022/05/16 13:59:05;;;;;;;20.50;6.93;;;;;;;;;;5074247;28;21569;-68
2022/05/16 14:01:31;;;;;;;21.15;6.65;;;;;;;;;;5057562;28;20123;-68
2022/05/16 14:03:59;;;;;;;20.95;7.90;;;;;;;;;;5072690;28;20036;-68
2022/05/16 14:06:32;;;;;;;17.52;7.15;;;;;;;;;;5069999;28;20100;-71
2022/05/16 14:09:05;;;;;;;18.23;6.80;;;;;;;;;;5068336;28;20141;-73
2022/05/16 14:11:32;;;;;;;17.58;6.47;;;;;;;;;;5067951;28;20366;-69
2022/05/16 14:13:58;;;;;;;16.17;6.93;;;;;;;;;;5069880;28;20084;-67
2022/05/16 14:16:31;;;;;;;18.98;7.90;;;;;;;;;;5065769;28;20421;-68
2022/05/16 14:19:02;;;;;;;17.80;7.82;;;;;;;;;;5049834;28;20071;-70
2022/05/16 14:21:29;;;;;;;21.10;8.50;;;;;;;;;;5049875;28;20140;-68
2022/05/16 14:23:58;;;;;;;22.75;8.60;;;;;;;;;;5052091;28;20098;-71
2022/05/16 14:26:48;;;;;;;18.55;9.15;;;;;;;;;;5069087;28;20120;-70
2022/05/16 14:29:43;;;;;;;55.05;10.82;;;;;;;;;;5068635;28;20075;-65
2022/05/16 14:32:10;;;;;;;22.85;9.68;;;;;;;;;;5047980;28;20135;-70
2022/05/16 14:34:40;;;;;;;22.90;8.93;;;;;;;;;;5068570;28;20107;-69
2022/05/16 14:37:18;;;;;;;20.42;9.35;;;;;;;;;;5079141;28;20412;-67
2022/05/16 14:39:45;;;;;;;21.30;10.32;;;;;;;;;;5063483;28;20039;-67
2022/05/16 14:42:14;;;;;;;20.83;9.25;;;;;;;;;;5073511;28;20040;-76
2022/05/16 14:44:54;;;;;;;21.95;10.60;;;;;;;;;;5065808;28;20097;-72
2022/05/16 14:47:43;;;;;;;21.85;11.20;;;;;;;;;;5053360;28;20480;-72
2022/05/16 14:50:23;;;;;;;19.48;10.32;;;;;;;;;;5046871;28;20108;-75
2022/05/16 14:52:56;;;;;;;19.92;11.15;;;;;;;;;;5073436;28;21534;-72
2022/05/16 14:55:31;;;;;;;20.85;10.57;;;;;;;;;;5084576;28;20206;-73
2022/05/16 14:58:00;;;;;;;21.85;10.98;;;;;;;;;;5082564;28;20054;-72
2022/05/16 15:05:56;;;;;;;23.92;13.25;;;;;;;;;;5066084;28;20433;-71
2022/05/16 15:08:25;;;;;;;31.10;15.43;;;;;;;;;;5069093;28;20139;-73
2022/05/16 15:10:51;;;;;;;27.98;16.60;;;;;;;;;;5079319;28;20051;-73
2022/05/16 15:13:17;;;;;;;29.50;17.75;;;;;;;;;;5071024;28;20452;-74
2022/05/16 15:15:44;;;;;;;29.90;18.15;;;;;;;;;;5068341;28;20122;-73
2022/05/16 15:18:10;;;;;;;27.08;17.27;;;;;;;;;;5077735;28;20535;-73
2022/05/16 15:20:39;;;;;;;33.78;20.10;;;;;;;;;;5066158;28;20099;-72
2022/05/16 15:23:05;;;;;;;30.00;18.92;;;;;;;;;;5059005;28;20392;-71
2022/05/16 15:25:32;;;;;;;29.67;18.38;;;;;;;;;;5067182;28;20041;-75
2022/05/16 15:27:58;;;;;;;28.17;16.20;;;;;;;;;;5062273;28;20761;-73
2022/05/16 15:30:26;;;;;;;28.02;16.88;;;;;;;;;;5071934;28;20170;-76